Wainwright, AK

3:24 PM AKST on December 04, 2016 (GMT -0900)
Wiley Post-Will Rogers Memorial | | Change Station

Elev 43 ft 71.28 °N, 156.79 °W | Updated 31 minutes ago

Clear
Clear
-18 °F
Feels Like -40 °F
N
12
Wind Variable Wind from SSE

Today
High -- | Low -- °F
--% Chance of Precip.
Yesterday
High -- | Low -- °F
Precip. -- in
Pressure 30.82 in
Visibility 5.0 miles
Clouds Clear
Windchill -40 °F
Dew Point -24 °F
Humidity 74%
Rainfall 0.00 in
Snow Depth Not available.
2:00 PM 2:00 PM
Waxing Crescent, 26% visible
METAR PABR 042353Z 15010KT 5SM BR CLR M28/M31 A3081 RMK AO2 SLP436 T12781311 11244 21278 53005
Pressure 30.82 in
Visibility 5.0 miles
Clouds Clear
Windchill -40 °F
Dew Point -24 °F
Humidity 74%
Rainfall 0.00 in
Snow Depth Not available.
2:00 PM 2:00 PM
Waxing Crescent, 26% visible
METAR PABR 042353Z 15010KT 5SM BR CLR M28/M31 A3081 RMK AO2 SLP436 T12781311 11244 21278 53005

10-Day Weather Forecast

Almanac

Astronomy

Dec. 04, 2016 Rise Set
Actual Time
Civil Twilight
Nautical Twilight
Astronomical Twilight
Moon
Length of Visible Light
Length of Day
Tomorrow will be .
, % of the Moon is Illuminated

Today's Extremes

State Highs State Lows

Community

WunderPhotos

Upload Photos

1,955,724 photos uploaded!

WunderBlog® & News

Nearby

Air Quality

  Air Quality AQ Index Pollutant
Not available.

Snow Depth

Station Depth Elevation

Earthquake Activity

City Distance Mag. Time & Date
Minimum magnitude displayed is 2.5.

Coastal Water Temperatures

Place Temperature

Stations

Nearby Weather Stations

Station Location Temp. Windchill Dew Point Humidity Wind Precip. Elev Updated Type
                   

Watches & Warnings

There are currently no watches in effect.